createdAt,value
2019-05-18T00:00:50.934Z,993.39
2019-05-18T00:05:50.812Z,993.42
2019-05-18T00:10:50.770Z,993.40
2019-05-18T00:15:50.642Z,993.34
2019-05-18T00:20:50.649Z,993.42
2019-05-18T00:25:50.621Z,993.42
2019-05-18T00:30:50.623Z,993.43
2019-05-18T00:35:59.877Z,993.42
2019-05-18T00:40:50.300Z,993.37
2019-05-18T00:45:50.266Z,993.32
2019-05-18T00:50:50.208Z,993.27
2019-05-18T00:55:50.216Z,993.26
2019-05-18T01:00:50.094Z,993.16
2019-05-18T01:05:50.035Z,993.24
2019-05-18T01:10:49.989Z,993.24
2019-05-18T01:15:49.906Z,993.31
2019-05-18T01:20:49.868Z,993.29
2019-05-18T01:25:49.837Z,993.25
2019-05-18T01:30:49.774Z,993.26
2019-05-18T01:35:49.909Z,993.19
2019-05-18T01:40:49.816Z,993.18
2019-05-18T01:45:51.570Z,993.16
2019-05-18T01:50:49.689Z,993.20
2019-05-18T01:55:49.642Z,993.19
2019-05-18T02:00:49.553Z,993.24
2019-05-18T02:05:49.481Z,993.20
2019-05-18T02:10:49.533Z,993.21
2019-05-18T02:15:49.392Z,993.14
2019-05-18T02:20:49.357Z,993.10
2019-05-18T02:25:49.309Z,993.12
2019-05-18T02:30:49.208Z,993.08
2019-05-18T02:35:49.166Z,993.08
2019-05-18T02:40:49.110Z,992.96
2019-05-18T02:45:49.076Z,992.96
2019-05-18T02:50:49.006Z,992.85
2019-05-18T02:55:49.005Z,992.75
2019-05-18T03:00:48.944Z,992.77
2019-05-18T03:05:48.876Z,992.86
2019-05-18T03:10:48.808Z,992.89
2019-05-18T03:15:48.733Z,992.85
2019-05-18T03:20:48.770Z,992.91
2019-05-18T03:25:48.777Z,992.79
2019-05-18T03:30:48.656Z,992.74
2019-05-18T03:35:48.621Z,992.71
2019-05-18T03:40:48.485Z,992.77
2019-05-18T03:45:48.426Z,992.81
2019-05-18T03:50:48.332Z,992.90
2019-05-18T03:55:48.289Z,992.94
2019-05-18T04:00:48.242Z,992.86
2019-05-18T04:05:48.166Z,992.92
2019-05-18T04:10:48.094Z,992.95
2019-05-18T04:15:48.034Z,992.97
2019-05-18T04:20:48.006Z,993.05
2019-05-18T04:25:47.956Z,993.09
2019-05-18T04:30:47.879Z,993.12
2019-05-18T04:35:47.944Z,993.14
2019-05-18T04:40:47.917Z,993.11
2019-05-18T04:45:47.711Z,993.09
2019-05-18T04:50:47.763Z,993.08
2019-05-18T04:55:47.705Z,993.12
2019-05-18T05:00:47.635Z,993.06
2019-05-18T05:05:47.563Z,993.01
2019-05-18T05:10:47.477Z,993.11
2019-05-18T05:15:47.427Z,993.03
2019-05-18T05:20:47.346Z,993.04
2019-05-18T05:25:47.282Z,993.10
2019-05-18T05:30:47.231Z,993.20
2019-05-18T05:35:47.179Z,993.27
2019-05-18T05:40:47.105Z,993.19
2019-05-18T05:45:47.070Z,993.27
2019-05-18T05:50:47.020Z,993.30
2019-05-18T05:55:47.036Z,993.33
2019-05-18T06:00:46.980Z,993.37
2019-05-18T06:05:46.988Z,993.39
2019-05-18T06:10:47.982Z,993.41
2019-05-18T06:15:46.801Z,993.40
2019-05-18T06:20:51.575Z,993.53
2019-05-18T06:25:47.677Z,993.52
2019-05-18T06:30:46.776Z,993.54
2019-05-18T06:35:46.673Z,993.55
2019-05-18T06:40:46.546Z,993.60
2019-05-18T06:45:55.888Z,993.63
2019-05-18T06:50:46.426Z,993.70
2019-05-18T06:55:46.291Z,993.72
2019-05-18T07:00:46.234Z,993.71
2019-05-18T07:05:46.207Z,993.76
2019-05-18T07:10:46.140Z,993.76
2019-05-18T07:15:46.114Z,993.78
2019-05-18T07:20:46.433Z,993.81
2019-05-18T07:25:46.031Z,993.79
2019-05-18T07:30:45.967Z,993.85
2019-05-18T07:35:46.264Z,993.84
2019-05-18T07:40:46.932Z,993.80
2019-05-18T07:45:45.910Z,993.82
2019-05-18T07:50:45.804Z,993.82
2019-05-18T07:55:45.819Z,993.88
2019-05-18T08:00:45.871Z,993.83
2019-05-18T08:05:45.632Z,993.86
2019-05-18T08:10:45.581Z,993.98
2019-05-18T08:15:45.527Z,993.97
2019-05-18T08:20:45.529Z,993.91
2019-05-18T08:25:45.728Z,993.87
2019-05-18T08:30:45.417Z,993.92
2019-05-18T08:35:45.336Z,993.89
2019-05-18T08:40:45.301Z,993.80
2019-05-18T08:45:45.262Z,993.92
2019-05-18T08:50:45.222Z,993.92
2019-05-18T08:55:45.155Z,993.89
2019-05-18T09:00:45.134Z,993.87
2019-05-18T09:05:45.054Z,993.93
2019-05-18T09:10:45.001Z,993.97
2019-05-18T09:15:44.944Z,993.99
2019-05-18T09:20:44.950Z,994.01
2019-05-18T09:25:44.872Z,994.05
2019-05-18T09:30:44.801Z,994.02
2019-05-18T09:35:44.793Z,994.10
2019-05-18T09:40:44.753Z,994.06
2019-05-18T09:45:44.681Z,993.92
2019-05-18T09:50:44.669Z,993.99
2019-05-18T09:55:44.616Z,993.97
2019-05-18T10:00:44.536Z,993.90
2019-05-18T10:05:44.561Z,993.88
2019-05-18T10:10:44.498Z,993.96
2019-05-18T10:15:44.516Z,993.88
2019-05-18T10:20:44.399Z,994.00
2019-05-18T10:25:44.339Z,993.91
2019-05-18T10:30:44.294Z,993.90
2019-05-18T10:35:44.270Z,993.87
2019-05-18T10:40:44.182Z,993.86
2019-05-18T10:45:45.193Z,993.87
2019-05-18T10:50:44.236Z,993.81
2019-05-18T10:55:44.056Z,993.87
2019-05-18T11:00:44.089Z,993.85
2019-05-18T11:05:44.020Z,993.85
2019-05-18T11:10:43.926Z,993.86
2019-05-18T11:15:43.898Z,993.84
2019-05-18T11:20:43.913Z,993.83
2019-05-18T11:25:43.849Z,993.66
2019-05-18T11:30:43.732Z,993.73
2019-05-18T11:35:43.712Z,993.68
2019-05-18T11:40:43.699Z,993.63
2019-05-18T11:45:43.610Z,993.75
2019-05-18T11:50:43.573Z,993.71
2019-05-18T11:55:43.539Z,993.68
2019-05-18T12:00:43.513Z,993.57
2019-05-18T12:05:43.549Z,993.66
2019-05-18T12:10:43.473Z,993.69
2019-05-18T12:15:43.353Z,993.64
2019-05-18T12:20:43.315Z,993.65
2019-05-18T12:25:43.286Z,993.75
2019-05-18T12:30:43.249Z,993.68
2019-05-18T12:35:43.177Z,993.62
2019-05-18T12:40:43.297Z,993.69
2019-05-18T12:45:43.090Z,993.65
2019-05-18T12:50:43.066Z,993.67
2019-05-18T12:55:51.945Z,993.59
2019-05-18T13:00:42.939Z,993.54
2019-05-18T13:05:42.927Z,993.53
2019-05-18T13:10:42.858Z,993.52
2019-05-18T13:15:42.852Z,993.47
2019-05-18T13:20:42.883Z,993.58
2019-05-18T13:25:42.748Z,993.72
2019-05-18T13:30:42.650Z,993.67
2019-05-18T13:35:45.504Z,993.60
2019-05-18T13:40:42.646Z,993.61
2019-05-18T13:45:42.518Z,993.52
2019-05-18T13:50:44.742Z,993.49
2019-05-18T13:55:42.491Z,993.43
2019-05-18T14:00:42.364Z,993.40
2019-05-18T14:05:42.331Z,993.46
2019-05-18T14:10:42.267Z,993.40
2019-05-18T14:15:42.206Z,993.39
2019-05-18T14:20:42.390Z,993.43
2019-05-18T14:25:42.145Z,993.49
2019-05-18T14:30:44.394Z,993.46
2019-05-18T14:35:48.751Z,993.45
2019-05-18T14:40:42.036Z,993.46
2019-05-18T14:45:42.095Z,993.44
2019-05-18T14:50:42.033Z,993.37
2019-05-18T14:55:41.850Z,993.34
2019-05-18T15:00:41.901Z,993.39
2019-05-18T15:05:41.826Z,993.44
2019-05-18T15:10:41.755Z,993.43
2019-05-18T15:15:41.663Z,993.46
2019-05-18T15:20:41.679Z,993.42
2019-05-18T15:25:50.145Z,993.39
2019-05-18T15:30:42.577Z,993.31
2019-05-18T15:35:41.514Z,993.36
2019-05-18T15:40:41.550Z,993.32
2019-05-18T15:45:41.481Z,993.28
2019-05-18T15:50:41.406Z,993.30
2019-05-18T15:55:41.361Z,993.33
2019-05-18T16:00:41.323Z,993.35
2019-05-18T16:05:43.196Z,993.32
2019-05-18T16:10:44.527Z,993.30
2019-05-18T16:15:41.116Z,993.25
2019-05-18T16:20:41.026Z,993.35
2019-05-18T16:25:40.990Z,993.32
2019-05-18T16:30:40.967Z,993.38
2019-05-18T16:35:40.988Z,993.40
2019-05-18T16:40:40.820Z,993.47
2019-05-18T16:45:40.804Z,993.54
2019-05-18T16:50:40.743Z,993.55
2019-05-18T16:55:40.639Z,993.64
2019-05-18T17:00:40.815Z,993.85
2019-05-18T17:05:40.623Z,993.82
2019-05-18T17:10:40.609Z,993.75
2019-05-18T17:15:40.513Z,993.73
2019-05-18T17:20:40.583Z,993.67
2019-05-18T17:25:40.385Z,993.63
2019-05-18T17:30:42.623Z,993.65
2019-05-18T17:35:40.241Z,993.58
2019-05-18T17:40:40.203Z,993.68
2019-05-18T17:45:40.163Z,993.68
2019-05-18T17:50:40.121Z,993.66
2019-05-18T17:55:40.062Z,993.51
2019-05-18T18:00:40.002Z,993.47
2019-05-18T18:05:39.941Z,993.51
2019-05-18T18:10:39.892Z,993.54
2019-05-18T18:15:39.916Z,993.48
2019-05-18T18:20:39.888Z,993.49
2019-05-18T18:25:40.224Z,993.53
2019-05-18T18:30:41.685Z,993.63
2019-05-18T18:35:39.832Z,993.69
2019-05-18T18:40:39.619Z,993.67
2019-05-18T18:45:39.621Z,993.71
2019-05-18T18:50:39.501Z,993.73
2019-05-18T18:55:41.509Z,993.80
2019-05-18T19:00:39.427Z,993.75
2019-05-18T19:05:39.355Z,993.87
2019-05-18T19:10:39.240Z,993.89
2019-05-18T19:15:39.166Z,993.94
2019-05-18T19:20:39.126Z,994.01
2019-05-18T19:25:39.066Z,994.16
2019-05-18T19:30:48.241Z,994.33
2019-05-18T19:35:38.948Z,994.38
2019-05-18T19:40:38.918Z,994.42
2019-05-18T19:45:38.847Z,994.45
2019-05-18T19:50:38.807Z,994.51
2019-05-18T19:55:38.729Z,994.55
2019-05-18T20:00:38.723Z,994.53
2019-05-18T20:05:38.800Z,994.56
2019-05-18T20:10:38.645Z,994.50
2019-05-18T20:15:38.527Z,994.49
2019-05-18T20:20:38.471Z,994.45
2019-05-18T20:25:38.446Z,994.49
2019-05-18T20:30:38.357Z,994.53
2019-05-18T20:35:38.324Z,994.52
2019-05-18T20:40:38.257Z,994.47
2019-05-18T20:45:38.203Z,994.52
2019-05-18T20:50:38.145Z,994.42
2019-05-18T20:55:38.109Z,994.51
2019-05-18T21:00:38.832Z,994.51
2019-05-18T21:05:38.061Z,994.38
2019-05-18T21:10:38.017Z,994.39
2019-05-18T21:15:37.890Z,994.36
2019-05-18T21:20:37.832Z,994.41
2019-05-18T21:25:37.763Z,994.47
2019-05-18T21:30:37.728Z,994.56
2019-05-18T21:35:37.673Z,994.54
2019-05-18T21:40:37.620Z,994.48
2019-05-18T21:45:37.554Z,994.49
2019-05-18T21:50:37.501Z,994.42
2019-05-18T21:55:37.462Z,994.44
2019-05-18T22:00:37.655Z,994.37
2019-05-18T22:05:37.350Z,994.36
2019-05-18T22:10:37.279Z,994.36
2019-05-18T22:15:37.228Z,994.36
2019-05-18T22:20:43.130Z,994.35
2019-05-18T22:25:38.151Z,994.34
2019-05-18T22:30:37.086Z,994.31
2019-05-18T22:35:37.019Z,994.30
2019-05-18T22:40:36.948Z,994.29
2019-05-18T22:45:36.935Z,994.34
2019-05-18T22:50:36.857Z,994.38
2019-05-18T22:55:36.808Z,994.30
2019-05-18T23:00:36.727Z,994.33
2019-05-18T23:05:36.697Z,994.34
2019-05-18T23:10:36.623Z,994.31
2019-05-18T23:15:36.561Z,994.28
2019-05-18T23:20:36.505Z,994.29
2019-05-18T23:25:36.499Z,994.34
2019-05-18T23:30:36.397Z,994.21
2019-05-18T23:35:36.365Z,994.15
2019-05-18T23:40:36.297Z,994.05
2019-05-18T23:45:36.269Z,994.05
2019-05-18T23:50:36.201Z,994.04
2019-05-18T23:55:36.138Z,993.95
